createdAt,value
2023-01-23T00:02:06.552Z,-0.45
2023-01-23T00:04:45.024Z,-0.53
2023-01-23T00:07:14.741Z,-0.50
2023-01-23T00:10:01.129Z,-0.61
2023-01-23T00:12:35.139Z,-0.59
2023-01-23T00:15:14.987Z,-0.64
2023-01-23T00:17:46.600Z,-0.58
2023-01-23T00:20:16.261Z,-0.62
2023-01-23T00:23:14.329Z,-0.62
2023-01-23T00:25:43.945Z,-0.60
2023-01-23T00:28:17.642Z,-0.58
2023-01-23T00:30:47.240Z,-0.58
2023-01-23T00:33:19.876Z,-0.55
2023-01-23T00:36:01.832Z,-0.53
2023-01-23T00:38:58.369Z,-0.55
2023-01-23T00:41:36.090Z,-0.51
2023-01-23T00:44:21.649Z,-0.49
2023-01-23T00:46:51.242Z,-0.48
2023-01-23T00:49:29.980Z,-0.50
2023-01-23T00:55:08.813Z,-0.45
2023-01-23T00:57:40.792Z,-0.41
2023-01-23T01:00:12.861Z,-0.38
2023-01-23T01:02:45.632Z,-0.39
2023-01-23T01:05:29.184Z,-0.37
2023-01-23T01:07:58.580Z,-0.42
2023-01-23T01:10:30.746Z,-0.47
2023-01-23T01:13:02.427Z,-0.50
2023-01-23T01:15:33.854Z,-0.50
2023-01-23T01:18:03.367Z,-0.45
2023-01-23T01:20:32.870Z,-0.45
2023-01-23T01:23:11.080Z,-0.46
2023-01-23T01:25:54.100Z,-0.46
2023-01-23T01:28:23.196Z,-0.40
2023-01-23T01:30:54.304Z,-0.38
2023-01-23T01:33:24.463Z,-0.40
2023-01-23T01:35:56.652Z,-0.34
2023-01-23T01:38:26.342Z,-0.48
2023-01-23T01:40:57.488Z,-0.56
2023-01-23T01:43:28.445Z,-0.54
2023-01-23T01:46:23.432Z,-0.56
2023-01-23T01:49:02.570Z,-0.51
2023-01-23T01:51:33.782Z,-0.52
2023-01-23T01:57:23.717Z,-0.59
2023-01-23T01:59:57.625Z,-0.71
2023-01-23T02:02:29.080Z,-0.66
2023-01-23T02:05:02.436Z,-0.54
2023-01-23T02:07:35.955Z,-0.50
2023-01-23T02:10:07.478Z,-0.47
2023-01-23T02:12:40.907Z,-0.44
2023-01-23T02:15:10.634Z,-0.44
2023-01-23T02:17:39.626Z,-0.64
2023-01-23T02:20:16.764Z,-0.68
2023-01-23T02:22:50.416Z,-0.68
2023-01-23T02:25:29.820Z,-0.59
2023-01-23T02:28:01.730Z,-0.78
2023-01-23T02:30:32.820Z,-0.79
2023-01-23T02:33:11.558Z,-0.84
2023-01-23T02:35:41.191Z,-0.84
2023-01-23T02:38:15.593Z,-0.95
2023-01-23T02:40:44.818Z,-0.86
2023-01-23T02:43:26.302Z,-1.02
2023-01-23T02:46:00.166Z,-1.14
2023-01-23T02:48:29.411Z,-1.18
2023-01-23T02:50:58.702Z,-1.32
2023-01-23T02:53:28.419Z,-1.39
2023-01-23T02:55:59.036Z,-1.40
2023-01-23T02:58:47.061Z,-1.54
2023-01-23T03:01:25.905Z,-1.59
2023-01-23T03:06:42.147Z,-1.49
2023-01-23T03:09:13.082Z,-1.40
2023-01-23T03:11:43.209Z,-1.36
2023-01-23T03:14:40.248Z,-1.40
2023-01-23T03:17:11.220Z,-1.65
2023-01-23T03:19:40.460Z,-1.76
2023-01-23T03:24:52.618Z,-1.72
2023-01-23T03:27:22.026Z,-1.76
2023-01-23T03:30:16.305Z,-1.77
2023-01-23T03:32:46.007Z,-1.62
2023-01-23T03:35:18.335Z,-1.66
2023-01-23T03:37:51.023Z,-1.44
2023-01-23T03:40:41.768Z,-1.40
2023-01-23T03:43:12.598Z,-1.61
2023-01-23T03:45:48.591Z,-1.45
2023-01-23T03:48:17.760Z,-1.43
2023-01-23T03:50:47.573Z,-1.39
2023-01-23T03:53:23.432Z,-1.31
2023-01-23T03:55:52.500Z,-1.27
2023-01-23T03:58:21.821Z,-1.19
2023-01-23T04:00:52.459Z,-1.12
2023-01-23T04:03:22.489Z,-1.14
2023-01-23T04:05:57.193Z,-1.18
2023-01-23T04:08:27.118Z,-1.21
2023-01-23T04:11:03.335Z,-1.41
2023-01-23T04:13:32.207Z,-1.57
2023-01-23T04:16:07.949Z,-1.54
2023-01-23T04:18:37.939Z,-1.41
2023-01-23T04:21:07.962Z,-1.46
2023-01-23T04:23:36.861Z,-1.39
2023-01-23T04:26:06.374Z,-1.51
2023-01-23T04:28:37.526Z,-1.44
2023-01-23T04:31:10.770Z,-1.45
2023-01-23T04:33:40.105Z,-1.43
2023-01-23T04:36:10.224Z,-1.37
2023-01-23T04:38:40.038Z,-1.34
2023-01-23T04:41:28.899Z,-1.23
2023-01-23T04:44:22.214Z,-1.23
2023-01-23T04:47:08.360Z,-1.08
2023-01-23T04:49:37.455Z,-1.07
2023-01-23T04:52:07.372Z,-1.20
2023-01-23T04:54:40.646Z,-1.12
2023-01-23T04:57:09.862Z,-1.00
2023-01-23T04:59:41.767Z,-0.86
2023-01-23T05:02:13.363Z,-0.80
2023-01-23T05:04:55.696Z,-0.76
2023-01-23T05:07:24.988Z,-0.72
2023-01-23T05:10:14.673Z,-0.78
2023-01-23T05:12:44.455Z,-0.65
2023-01-23T05:15:17.396Z,-0.66
2023-01-23T05:17:50.270Z,-0.65
2023-01-23T05:20:23.634Z,-0.64
2023-01-23T05:22:58.315Z,-0.61
2023-01-23T05:25:35.823Z,-0.69
2023-01-23T05:28:05.978Z,-0.61
2023-01-23T05:30:35.635Z,-0.55
2023-01-23T05:33:19.947Z,-0.52
2023-01-23T05:36:01.147Z,-0.47
2023-01-23T05:38:47.386Z,-0.45
2023-01-23T05:41:19.990Z,-0.43
2023-01-23T05:44:17.986Z,-0.44
2023-01-23T05:46:55.348Z,-0.44
2023-01-23T05:49:28.877Z,-0.54
2023-01-23T05:51:59.105Z,-0.46
2023-01-23T05:54:28.666Z,-0.40
2023-01-23T05:56:57.460Z,-0.36
2023-01-23T05:59:38.269Z,-0.36
2023-01-23T06:02:22.738Z,-0.38
2023-01-23T06:05:19.568Z,-0.37
2023-01-23T06:08:02.394Z,-0.39
2023-01-23T06:10:32.227Z,-0.40
2023-01-23T06:13:01.431Z,-0.37
2023-01-23T06:15:30.830Z,-0.37
2023-01-23T06:18:07.124Z,-0.36
2023-01-23T06:20:37.395Z,-0.41
2023-01-23T06:23:06.187Z,-0.32
2023-01-23T06:25:38.360Z,-0.47
2023-01-23T06:28:10.228Z,-0.53
2023-01-23T06:30:38.984Z,-0.47
2023-01-23T06:33:14.839Z,-0.41
2023-01-23T06:35:45.296Z,-0.33
2023-01-23T06:38:14.382Z,-0.30
2023-01-23T06:40:45.323Z,-0.32
2023-01-23T06:43:27.815Z,-0.35
2023-01-23T06:45:57.242Z,-0.28
2023-01-23T06:48:26.947Z,-0.32
2023-01-23T06:51:01.469Z,-0.51
2023-01-23T06:53:32.094Z,-0.62
2023-01-23T06:56:02.543Z,-0.54
2023-01-23T06:58:35.928Z,-0.46
2023-01-23T07:01:10.716Z,-0.51
2023-01-23T07:04:05.845Z,-0.47
2023-01-23T07:06:36.376Z,-0.42
2023-01-23T07:09:06.134Z,-0.34
2023-01-23T07:11:37.237Z,-0.31
2023-01-23T07:14:08.181Z,-0.29
2023-01-23T07:16:38.913Z,-0.25
2023-01-23T07:19:08.165Z,-0.24
2023-01-23T07:21:41.527Z,-0.21
2023-01-23T07:24:10.579Z,-0.17
2023-01-23T07:26:39.920Z,-0.14
2023-01-23T07:29:09.396Z,-0.15
2023-01-23T07:31:38.979Z,-0.17
2023-01-23T07:34:08.725Z,-0.14
2023-01-23T07:36:41.954Z,-0.05
2023-01-23T07:39:11.237Z,-0.05
2023-01-23T07:41:41.607Z,-0.02
2023-01-23T07:44:17.664Z,-0.02
2023-01-23T07:46:46.642Z,0.03
2023-01-23T07:49:16.123Z,-0.01
2023-01-23T07:51:46.863Z,-0.01
2023-01-23T07:54:16.515Z,0.03
2023-01-23T07:56:52.824Z,0.03
2023-01-23T07:59:23.085Z,-0.04
2023-01-23T08:01:52.768Z,-0.01
2023-01-23T08:04:22.308Z,-0.02
2023-01-23T08:06:56.034Z,0.06
2023-01-23T08:09:35.368Z,-0.01
2023-01-23T08:12:04.831Z,-0.03
2023-01-23T08:14:37.302Z,-0.03
2023-01-23T08:17:07.192Z,-0.06
2023-01-23T08:19:39.279Z,0.00
2023-01-23T08:22:10.423Z,0.09
2023-01-23T08:24:39.620Z,0.07
2023-01-23T08:27:09.805Z,-0.03
2023-01-23T08:29:42.627Z,0.05
2023-01-23T08:32:12.380Z,0.08
2023-01-23T08:34:41.680Z,0.15
2023-01-23T08:37:12.173Z,0.12
2023-01-23T08:39:41.413Z,0.16
2023-01-23T08:42:10.978Z,0.14
2023-01-23T08:44:39.624Z,0.12
2023-01-23T08:47:08.306Z,0.22
2023-01-23T08:49:36.898Z,0.30
2023-01-23T08:52:06.519Z,0.32
2023-01-23T08:54:36.667Z,0.37
2023-01-23T08:57:08.094Z,0.29
2023-01-23T08:59:36.740Z,0.37
2023-01-23T09:02:05.475Z,0.37
2023-01-23T09:04:34.477Z,0.39
2023-01-23T09:07:03.481Z,0.43
2023-01-23T09:09:36.163Z,0.32
2023-01-23T09:12:10.147Z,0.39
2023-01-23T09:14:39.553Z,0.50
2023-01-23T09:17:08.778Z,0.49
2023-01-23T09:19:37.849Z,0.52
2023-01-23T09:22:06.763Z,0.48
2023-01-23T09:24:38.809Z,0.51
2023-01-23T09:27:09.935Z,0.58
2023-01-23T09:29:38.866Z,0.71
2023-01-23T09:32:07.654Z,0.77
2023-01-23T09:34:36.744Z,0.85
2023-01-23T09:37:05.949Z,0.82
2023-01-23T09:39:34.697Z,0.81
2023-01-23T09:42:08.471Z,0.86
2023-01-23T09:44:41.083Z,0.80
2023-01-23T09:47:14.247Z,0.87
2023-01-23T09:49:45.499Z,0.94
2023-01-23T09:52:16.475Z,1.02
2023-01-23T09:54:47.455Z,1.04
2023-01-23T09:57:18.544Z,1.06
2023-01-23T10:00:00.083Z,1.05
2023-01-23T10:02:29.852Z,0.95
2023-01-23T10:04:59.747Z,0.98
2023-01-23T10:07:46.403Z,0.99
2023-01-23T10:10:32.834Z,1.05
2023-01-23T10:13:07.965Z,1.18
2023-01-23T10:15:48.509Z,1.21
2023-01-23T10:18:20.977Z,1.22
2023-01-23T10:20:58.986Z,1.27
2023-01-23T10:23:46.439Z,1.26
2023-01-23T10:26:20.112Z,1.29
2023-01-23T10:28:49.758Z,1.37
2023-01-23T10:31:27.209Z,1.51
2023-01-23T10:34:02.486Z,1.52
2023-01-23T10:36:47.970Z,1.48
2023-01-23T10:39:33.419Z,1.45
2023-01-23T10:42:02.978Z,1.45
2023-01-23T10:44:31.665Z,1.54
2023-01-23T10:47:03.890Z,1.62
2023-01-23T10:49:35.526Z,1.56
2023-01-23T10:52:38.460Z,1.65
2023-01-23T10:55:27.271Z,1.62
2023-01-23T10:57:57.482Z,1.56
2023-01-23T11:00:29.705Z,1.44
2023-01-23T11:03:26.966Z,1.48
2023-01-23T11:05:57.141Z,1.45
2023-01-23T11:08:28.268Z,1.60
2023-01-23T11:11:19.771Z,1.70
2023-01-23T11:13:49.560Z,1.77
2023-01-23T11:16:20.142Z,1.72
2023-01-23T11:18:55.942Z,1.79
2023-01-23T11:21:26.316Z,1.93
2023-01-23T11:24:10.923Z,1.93
2023-01-23T11:26:40.470Z,1.78
2023-01-23T11:29:23.252Z,1.69
2023-01-23T11:31:55.151Z,1.89
2023-01-23T11:34:27.936Z,2.05
2023-01-23T11:37:01.496Z,2.08
2023-01-23T11:39:40.258Z,2.01
2023-01-23T11:42:11.267Z,2.04
2023-01-23T11:44:46.004Z,2.20
2023-01-23T11:47:48.571Z,2.30
2023-01-23T11:50:49.961Z,2.29
2023-01-23T11:53:41.133Z,2.32
2023-01-23T11:56:38.447Z,2.42
2023-01-23T11:59:36.045Z,2.43
2023-01-23T12:02:25.126Z,2.53
2023-01-23T12:05:26.069Z,2.40
2023-01-23T12:08:05.360Z,2.30
2023-01-23T12:10:39.376Z,2.47
2023-01-23T12:13:18.067Z,2.51
2023-01-23T12:15:49.966Z,2.61
2023-01-23T12:18:45.468Z,2.72
2023-01-23T12:21:19.533Z,2.65
2023-01-23T12:24:01.045Z,2.74
2023-01-23T12:26:30.684Z,2.82
2023-01-23T12:29:26.829Z,2.72
2023-01-23T12:32:09.107Z,2.79
2023-01-23T12:34:52.587Z,2.72
2023-01-23T12:37:31.824Z,2.61
2023-01-23T12:40:10.056Z,2.56
2023-01-23T12:42:42.485Z,2.53
2023-01-23T12:45:19.027Z,2.69
2023-01-23T12:47:53.674Z,2.75
2023-01-23T12:50:25.275Z,2.70
2023-01-23T12:52:59.365Z,2.61
2023-01-23T12:55:34.214Z,2.49
2023-01-23T12:58:10.077Z,2.40
2023-01-23T13:00:56.453Z,2.40
2023-01-23T13:03:44.816Z,2.53
2023-01-23T13:06:42.996Z,2.53
2023-01-23T13:09:18.813Z,2.48
2023-01-23T13:12:01.818Z,2.59
2023-01-23T13:15:03.582Z,2.68
2023-01-23T13:17:38.080Z,2.78
2023-01-23T13:20:38.530Z,2.74
2023-01-23T13:23:25.075Z,2.79
2023-01-23T13:26:36.751Z,2.69
2023-01-23T13:29:09.192Z,2.60
2023-01-23T13:31:42.215Z,2.67
2023-01-23T13:34:36.333Z,2.64
2023-01-23T13:37:34.020Z,2.68
2023-01-23T13:40:06.616Z,2.66
2023-01-23T13:42:36.679Z,2.64
2023-01-23T13:45:30.745Z,2.69
2023-01-23T14:22:38.070Z,3.00
2023-01-23T14:25:15.757Z,3.07
2023-01-23T14:27:52.861Z,3.02
2023-01-23T14:30:26.800Z,2.97
2023-01-23T14:32:57.051Z,2.98
2023-01-23T14:35:27.117Z,3.01
2023-01-23T14:37:57.160Z,3.04
2023-01-23T14:40:28.193Z,2.96
2023-01-23T14:43:01.763Z,3.03
2023-01-23T14:45:33.058Z,2.82
2023-01-23T14:48:07.424Z,2.75
2023-01-23T14:50:36.453Z,2.68
2023-01-23T14:53:06.328Z,2.73
2023-01-23T14:55:38.387Z,2.74
2023-01-23T14:58:07.514Z,2.65
2023-01-23T15:00:37.009Z,2.69
2023-01-23T15:03:08.482Z,2.64
2023-01-23T15:05:39.724Z,2.45
2023-01-23T15:08:20.333Z,2.41
2023-01-23T15:10:50.230Z,2.45
2023-01-23T15:13:24.561Z,2.32
2023-01-23T15:15:56.450Z,2.42
2023-01-23T15:18:27.649Z,2.32
2023-01-23T15:20:57.214Z,2.37
2023-01-23T15:23:31.480Z,2.37
2023-01-23T15:26:23.373Z,2.33
2023-01-23T15:28:53.504Z,2.46
2023-01-23T15:31:29.083Z,2.56
2023-01-23T15:34:16.678Z,2.50
2023-01-23T15:36:47.785Z,2.55
2023-01-23T15:39:19.100Z,2.57
2023-01-23T15:41:49.664Z,2.59
2023-01-23T15:44:19.329Z,2.62
2023-01-23T15:46:47.841Z,2.64
2023-01-23T15:49:25.368Z,2.68
2023-01-23T15:51:57.188Z,2.72
2023-01-23T15:54:32.523Z,2.71
2023-01-23T15:57:08.736Z,2.77
2023-01-23T15:59:38.053Z,2.65
2023-01-23T16:02:08.273Z,2.61
2023-01-23T16:04:41.123Z,2.55
2023-01-23T16:07:10.011Z,2.44
2023-01-23T16:09:39.361Z,2.50
2023-01-23T16:12:11.348Z,2.47
2023-01-23T16:14:39.531Z,2.48
2023-01-23T16:17:16.309Z,2.54
2023-01-23T16:19:46.763Z,2.54
2023-01-23T16:22:17.947Z,2.50
2023-01-23T16:24:46.312Z,2.52
2023-01-23T16:27:18.937Z,2.38
2023-01-23T16:29:49.517Z,2.40
2023-01-23T16:32:18.042Z,2.48
2023-01-23T16:34:47.643Z,2.45
2023-01-23T16:37:17.659Z,2.55
2023-01-23T16:39:47.005Z,2.57
2023-01-23T16:42:21.082Z,2.46
2023-01-23T16:44:49.478Z,2.51
2023-01-23T16:47:18.124Z,2.45
2023-01-23T16:49:52.948Z,2.48
2023-01-23T16:52:22.069Z,2.47
2023-01-23T16:54:53.027Z,2.27
2023-01-23T16:57:21.744Z,2.33
2023-01-23T16:59:50.475Z,2.32
2023-01-23T17:02:22.099Z,2.33
2023-01-23T17:04:52.163Z,2.36
2023-01-23T17:07:20.673Z,2.19
2023-01-23T17:09:50.175Z,2.25
2023-01-23T17:12:21.042Z,2.25
2023-01-23T17:14:49.737Z,2.28
2023-01-23T17:17:22.833Z,2.24
2023-01-23T17:19:52.564Z,2.22
2023-01-23T17:22:22.850Z,2.37
2023-01-23T17:24:51.081Z,2.36
2023-01-23T17:27:19.401Z,2.43
2023-01-23T17:29:48.343Z,2.28
2023-01-23T17:32:25.166Z,2.33
2023-01-23T17:34:55.092Z,2.33
2023-01-23T17:37:24.166Z,2.37
2023-01-23T17:39:52.661Z,2.41
2023-01-23T17:42:22.006Z,2.42
2023-01-23T17:44:50.592Z,2.35
2023-01-23T17:47:19.147Z,2.31
2023-01-23T17:49:51.313Z,2.32
2023-01-23T17:52:21.771Z,2.31
2023-01-23T17:54:50.095Z,2.33
2023-01-23T17:57:18.382Z,2.38
2023-01-23T17:59:46.573Z,2.36
2023-01-23T18:02:36.476Z,2.40
2023-01-23T18:05:05.207Z,2.43
2023-01-23T18:07:48.563Z,2.40
2023-01-23T18:10:22.239Z,2.32
2023-01-23T18:12:57.022Z,2.41
2023-01-23T18:15:30.712Z,2.51
2023-01-23T18:18:12.451Z,2.45
2023-01-23T18:20:41.090Z,2.43
2023-01-23T18:23:12.669Z,2.40
2023-01-23T18:25:43.485Z,2.31
2023-01-23T18:28:18.302Z,2.33
2023-01-23T18:30:50.503Z,2.40
2023-01-23T18:33:34.777Z,2.40
2023-01-23T18:36:23.120Z,2.43
2023-01-23T18:39:04.460Z,2.42
2023-01-23T18:41:32.884Z,2.49
2023-01-23T18:44:05.874Z,2.50
2023-01-23T18:46:34.498Z,2.45
2023-01-23T18:49:03.332Z,2.50
2023-01-23T18:51:38.731Z,2.52
2023-01-23T18:54:21.102Z,2.44
2023-01-23T18:56:58.588Z,2.47
2023-01-23T18:59:32.013Z,2.44
2023-01-23T19:02:04.774Z,2.47
2023-01-23T19:04:37.635Z,2.50
2023-01-23T19:07:18.379Z,2.53
2023-01-23T19:09:49.117Z,2.37
2023-01-23T19:12:26.528Z,2.40
2023-01-23T19:15:03.379Z,2.37
2023-01-23T19:17:39.350Z,2.35
2023-01-23T19:20:20.471Z,2.38
2023-01-23T19:23:01.701Z,2.36
2023-01-23T19:25:31.695Z,2.22
2023-01-23T19:28:01.292Z,2.20
2023-01-23T19:30:30.222Z,2.29
2023-01-23T19:32:58.437Z,2.23
2023-01-23T19:35:26.733Z,2.28
2023-01-23T19:37:55.050Z,2.19
2023-01-23T19:40:23.290Z,2.19
2023-01-23T19:43:12.769Z,2.22
2023-01-23T19:45:42.211Z,2.08
2023-01-23T19:48:10.558Z,1.98
2023-01-23T19:50:39.107Z,1.97
2023-01-23T19:53:08.402Z,1.88
2023-01-23T19:55:38.417Z,1.94
2023-01-23T19:58:08.304Z,1.89
2023-01-23T20:00:37.265Z,1.90
2023-01-23T20:03:06.173Z,1.94
2023-01-23T20:05:34.384Z,1.95
2023-01-23T20:08:02.592Z,1.97
2023-01-23T20:10:30.919Z,2.03
2023-01-23T20:12:59.368Z,2.07
2023-01-23T20:15:30.059Z,2.07
2023-01-23T20:17:58.467Z,2.12
2023-01-23T20:20:27.004Z,2.09
2023-01-23T20:22:55.609Z,2.15
2023-01-23T20:25:24.455Z,2.18
2023-01-23T20:27:53.255Z,2.19
2023-01-23T20:30:22.063Z,2.19
2023-01-23T20:32:51.960Z,2.15
2023-01-23T20:35:20.393Z,2.10
2023-01-23T20:37:48.941Z,2.04
2023-01-23T20:40:18.095Z,2.01
2023-01-23T20:42:47.095Z,1.99
2023-01-23T20:45:15.882Z,1.80
2023-01-23T20:47:45.453Z,1.82
2023-01-23T20:50:15.773Z,1.71
2023-01-23T20:53:01.903Z,1.76
2023-01-23T20:55:30.579Z,1.73
2023-01-23T20:58:16.456Z,1.81
2023-01-23T21:00:45.093Z,1.85
2023-01-23T21:03:13.497Z,1.89
2023-01-23T21:05:43.428Z,1.89
2023-01-23T21:08:11.824Z,1.80
2023-01-23T21:10:40.150Z,1.84
2023-01-23T21:13:11.720Z,1.74
2023-01-23T21:15:40.372Z,1.83
2023-01-23T21:18:09.080Z,1.92
2023-01-23T21:20:39.275Z,1.81
2023-01-23T21:23:09.655Z,1.82
2023-01-23T21:25:38.026Z,1.85
2023-01-23T21:28:06.566Z,1.85
2023-01-23T21:30:34.929Z,1.90
2023-01-23T21:33:03.519Z,1.93
2023-01-23T21:35:32.052Z,1.90
2023-01-23T21:38:01.737Z,1.76
2023-01-23T21:40:31.753Z,1.85
2023-01-23T21:43:00.045Z,1.82
2023-01-23T21:45:28.631Z,1.83
2023-01-23T21:47:57.009Z,1.84
2023-01-23T21:50:25.651Z,1.78
2023-01-23T21:52:54.479Z,1.87
2023-01-23T21:55:23.324Z,1.89
2023-01-23T21:57:53.550Z,1.86
2023-01-23T22:00:40.066Z,1.91
2023-01-23T22:03:08.358Z,1.84
2023-01-23T22:05:36.719Z,1.87
2023-01-23T22:08:05.691Z,1.79
2023-01-23T22:10:34.255Z,1.90
2023-01-23T22:13:04.110Z,1.90
2023-01-23T22:15:32.384Z,1.99
2023-01-23T22:18:00.652Z,1.99
2023-01-23T22:20:29.046Z,1.99
2023-01-23T22:22:57.759Z,1.95
2023-01-23T22:25:26.196Z,1.98
2023-01-23T22:27:55.105Z,1.90
2023-01-23T22:30:25.080Z,1.95
2023-01-23T22:32:53.411Z,2.01
2023-01-23T22:35:21.881Z,1.94
2023-01-23T22:37:50.342Z,1.94
2023-01-23T22:40:19.297Z,1.90
2023-01-23T22:42:47.710Z,1.87
2023-01-23T22:45:16.892Z,1.92
2023-01-23T22:47:47.341Z,1.95
2023-01-23T22:50:17.038Z,1.91
2023-01-23T22:52:45.372Z,1.97
2023-01-23T22:55:14.259Z,1.86
2023-01-23T22:57:42.919Z,1.87
2023-01-23T23:00:14.175Z,1.95
2023-01-23T23:02:43.231Z,1.93
2023-01-23T23:05:13.365Z,1.98
2023-01-23T23:07:42.166Z,2.02
2023-01-23T23:10:12.808Z,2.03
2023-01-23T23:12:41.336Z,2.03
2023-01-23T23:15:11.217Z,2.05
2023-01-23T23:17:40.479Z,2.09
2023-01-23T23:20:10.810Z,2.07
2023-01-23T23:22:41.106Z,2.09
2023-01-23T23:25:10.675Z,2.06
2023-01-23T23:27:39.857Z,2.05
2023-01-23T23:30:10.260Z,2.01
2023-01-23T23:32:38.879Z,2.00
2023-01-23T23:35:08.448Z,2.01
2023-01-23T23:37:37.130Z,1.99
2023-01-23T23:40:08.848Z,1.99
2023-01-23T23:42:37.303Z,2.05
2023-01-23T23:45:06.812Z,2.00
2023-01-23T23:47:34.985Z,1.92
2023-01-23T23:50:05.012Z,1.94
2023-01-23T23:52:35.944Z,1.98
2023-01-23T23:55:08.589Z,1.98
2023-01-23T23:57:36.884Z,1.98
